KMIC/MIC METAR and TAF weather

Enter ICAO airport designator
Station Type Date Time Source
KMIC METAR 2022/11/30 17:53 UTC NOAA

KMIC 301753Z 28015G31KT 10SM BKN029 OVC033 M08/M14 A3005 RMK AO2 PK WND 27033/1701 SLP191 60000 T10831139 11072 21094 51024


Station Type Date Time Source
KMIC Decoded METAR 2022/11/30 17:53 UTC NOAA

CRYSTAL AIRPORT, MN, United States (KMIC) 45-04N 093-21W 265M
Nov 30, 2022 - 12:53 PM EST / 2022.11.30 1753 UTC
Wind: from the W (280 degrees) at 17 MPH (15 KT) gusting to 36 MPH (31 KT):0
Visibility: 10 mile(s):0
Sky conditions: overcast
Temperature: 17.1 F (-8.3 C)
Windchill: 1 F (-17 C):1
Dew Point: 7.0 F (-13.9 C)
Relative Humidity: 63%
Pressure (altimeter): 30.05 in. Hg (1017 hPa)
Pressure tendency: 0.07 inches (2.4 hPa) higher than three hours ago
ob: KMIC 301753Z 28015G31KT 10SM BKN029 OVC033 M08/M14 A3005 RMK AO2 PK WND 27033/1701 SLP191 60000 T10831139 11072 21094 51024
cycle: 18

Station Type Date Time Source
KMIC TAF UTC NOAA

Error!

Example: see airport list